Time;durP1;ratioP1;P1;durP2;ratioP2;P2;SDS_P1;SDS_P2;PMS_P1;PMS_P2;Temp;Humidity;BMP_temperature;BMP_pressure;BME280_temperature;BME280_humidity;BME280_pressure;Samples;Min_cycle;Max_cycle;Signal;HPM_P1;HPM_P2
2021/05/22 05:15:20;;;;;;;1.98;1.50;;;;;;;;;;5031214;22;20046;-76
2021/05/22 05:17:46;;;;;;;4.90;1.52;;;;;;;;;;5033341;28;20095;-72
2021/05/22 09:06:32;;;;;;;4.82;1.52;;;;;;;;;;5744277;22;20050;-69
2021/05/22 09:09:04;;;;;;;20.25;1.60;;;;;;;;;;5033350;28;20021;-69
2021/05/22 09:11:31;;;;;;;2.38;1.00;;;;;;;;;;5031511;28;20041;-70
2021/05/22 09:13:57;;;;;;;1.55;0.73;;;;;;;;;;5032823;28;20033;-71
2021/05/22 09:16:34;;;;;;;5.20;0.80;;;;;;;;;;5032447;28;20040;-70
2021/05/22 09:19:01;;;;;;;5.72;1.25;;;;;;;;;;5032502;28;20465;-70
2021/05/22 09:21:33;;;;;;;4.25;0.98;;;;;;;;;;5032005;28;20036;-69
2021/05/22 09:23:59;;;;;;;4.10;0.93;;;;;;;;;;5032432;28;20025;-71
2021/05/22 09:26:31;;;;;;;9.95;1.13;;;;;;;;;;5032600;28;20507;-70
2021/05/22 09:28:59;;;;;;;1.60;0.85;;;;;;;;;;5032544;28;20025;-69
2021/05/22 09:31:27;;;;;;;1.75;0.90;;;;;;;;;;5032676;28;20037;-68
2021/05/22 09:33:59;;;;;;;1.55;0.65;;;;;;;;;;5032852;28;20104;-69
2021/05/22 09:36:25;;;;;;;4.88;1.30;;;;;;;;;;5032196;28;20029;-68
2021/05/22 09:38:51;;;;;;;2.72;1.00;;;;;;;;;;5032352;28;20045;-69
2021/05/22 09:41:18;;;;;;;7.30;1.00;;;;;;;;;;5032298;28;20045;-70
2021/05/22 09:44:04;;;;;;;2.20;0.70;;;;;;;;;;5032310;28;20206;-74
2021/05/22 09:46:30;;;;;;;3.08;0.95;;;;;;;;;;5032283;28;20049;-67
2021/05/22 09:49:03;;;;;;;3.92;1.17;;;;;;;;;;5031739;28;20072;-71
2021/05/22 09:51:29;;;;;;;1.70;1.00;;;;;;;;;;5014386;28;20030;-72
2021/05/22 09:53:55;;;;;;;2.67;0.90;;;;;;;;;;5031150;28;20094;-70
2021/05/22 09:56:22;;;;;;;3.90;1.00;;;;;;;;;;5032184;28;20034;-70
2021/05/22 09:58:54;;;;;;;2.88;1.35;;;;;;;;;;5031989;28;20400;-72
2021/05/22 10:01:25;;;;;;;2.67;1.05;;;;;;;;;;5014461;28;20436;-67
2021/05/22 10:03:51;;;;;;;;;;;;;;;;;;5032751;28;20021;-67
2021/05/22 10:06:17;;;;;;;2.88;1.30;;;;;;;;;;5032069;28;19921;-67
2021/05/22 10:08:43;;;;;;;3.58;1.20;;;;;;;;;;5032120;28;20064;-67
2021/05/22 10:11:09;;;;;;;12.02;1.40;;;;;;;;;;5032248;28;20048;-70
2021/05/22 10:13:36;;;;;;;5.28;1.10;;;;;;;;;;5032305;28;20560;-70
2021/05/22 10:16:03;;;;;;;20.20;1.67;;;;;;;;;;5024316;28;20029;-70
2021/05/22 10:18:30;;;;;;;3.15;1.05;;;;;;;;;;5032095;28;20029;-70
2021/05/22 10:20:57;;;;;;;3.42;1.30;;;;;;;;;;5032299;28;20029;-70
2021/05/22 10:23:23;;;;;;;14.63;7.55;;;;;;;;;;5032179;28;20469;-70
2021/05/22 10:25:49;;;;;;;4.40;1.20;;;;;;;;;;5014520;28;20053;-71
2021/05/22 10:28:15;;;;;;;3.80;1.50;;;;;;;;;;5031991;28;20060;-72
2021/05/22 10:30:42;;;;;;;7.68;2.75;;;;;;;;;;5032070;28;20036;-72
2021/05/22 10:33:08;;;;;;;3.58;1.25;;;;;;;;;;5032011;28;20025;-70
2021/05/22 10:35:41;;;;;;;3.08;1.33;;;;;;;;;;5035081;28;20488;-71
2021/05/22 10:38:08;;;;;;;3.22;0.93;;;;;;;;;;5035749;28;20495;-71
2021/05/22 10:40:51;;;;;;;7.18;1.15;;;;;;;;;;5035577;28;20048;-71
2021/05/22 10:43:37;;;;;;;3.67;1.20;;;;;;;;;;5035258;28;20053;-70
2021/05/22 10:46:03;;;;;;;4.22;1.10;;;;;;;;;;5035526;28;20152;-71
2021/05/22 10:48:30;;;;;;;4.43;1.05;;;;;;;;;;5035142;28;20026;-71
2021/05/22 10:50:56;;;;;;;3.88;1.25;;;;;;;;;;5035232;28;20030;-70
2021/05/22 10:53:22;;;;;;;4.57;1.27;;;;;;;;;;5035394;28;20026;-71
2021/05/22 10:56:04;;;;;;;2.30;1.25;;;;;;;;;;5035392;28;20037;-70
2021/05/22 10:58:30;;;;;;;2.78;1.13;;;;;;;;;;5034888;28;20030;-71
2021/05/22 11:01:15;;;;;;;5.88;1.20;;;;;;;;;;5017476;28;20029;-70
2021/05/22 11:03:41;;;;;;;3.63;1.08;;;;;;;;;;5035201;28;20087;-70
2021/05/22 11:06:27;;;;;;;2.47;1.17;;;;;;;;;;5034868;28;20107;-70
2021/05/22 11:08:53;;;;;;;2.58;1.15;;;;;;;;;;5034716;28;20056;-72
2021/05/22 11:11:34;;;;;;;3.72;1.10;;;;;;;;;;5034982;28;20087;-71
2021/05/22 11:14:00;;;;;;;3.83;1.20;;;;;;;;;;5034990;28;20040;-70
2021/05/22 11:16:33;;;;;;;6.78;1.70;;;;;;;;;;5034827;28;20548;-72
2021/05/22 11:19:01;;;;;;;6.05;1.42;;;;;;;;;;5034745;28;20046;-71
2021/05/22 11:21:27;;;;;;;6.40;1.30;;;;;;;;;;5034822;28;20108;-71
2021/05/22 11:23:59;;;;;;;1.67;1.27;;;;;;;;;;5034601;28;20068;-70
2021/05/22 11:26:49;;;;;;;2.60;1.17;;;;;;;;;;5034686;28;20516;-70
2021/05/22 11:29:18;;;;;;;2.15;1.42;;;;;;;;;;5016821;28;20393;-71
2021/05/22 11:31:44;;;;;;;1.70;1.40;;;;;;;;;;5034611;28;20052;-71
2021/05/22 11:34:25;;;;;;;3.13;1.65;;;;;;;;;;5034603;28;20033;-70
2021/05/22 11:37:09;;;;;;;2.28;1.27;;;;;;;;;;5034491;28;20036;-71
2021/05/22 11:39:45;;;;;;;3.05;1.70;;;;;;;;;;5034332;28;20042;-71
2021/05/22 11:42:30;;;;;;;2.95;1.50;;;;;;;;;;5034486;28;20060;-70
2021/05/22 11:44:57;;;;;;;4.10;1.38;;;;;;;;;;5033721;28;20032;-71
2021/05/22 11:47:29;;;;;;;3.75;1.55;;;;;;;;;;5034199;28;20030;-72
2021/05/22 11:49:55;;;;;;;5.55;1.30;;;;;;;;;;5034215;28;20080;-68
2021/05/22 11:52:31;;;;;;;3.20;2.00;;;;;;;;;;5034249;28;20034;-67
2021/05/22 11:54:58;;;;;;;4.55;1.60;;;;;;;;;;5034154;28;20080;-67
2021/05/22 11:57:24;;;;;;;3.47;1.77;;;;;;;;;;5034187;28;20026;-67
2021/05/22 11:59:50;;;;;;;2.65;1.33;;;;;;;;;;5034008;28;20037;-69
2021/05/22 12:02:36;;;;;;;3.42;1.40;;;;;;;;;;5033893;28;20377;-71
2021/05/22 12:05:02;;;;;;;4.82;1.45;;;;;;;;;;5025719;28;20488;-68
2021/05/22 12:07:28;;;;;;;3.67;1.50;;;;;;;;;;5033384;28;20070;-69
2021/05/22 12:09:54;;;;;;;9.10;1.67;;;;;;;;;;5033822;28;20033;-70
2021/05/22 12:12:29;;;;;;;3.40;1.30;;;;;;;;;;5033792;28;20714;-69
2021/05/22 12:14:55;;;;;;;1.92;1.63;;;;;;;;;;5033768;28;20112;-71
2021/05/22 12:17:21;;;;;;;3.60;1.67;;;;;;;;;;5033612;28;20187;-70
2021/05/22 12:19:50;;;;;;;5.00;1.73;;;;;;;;;;5015779;28;20034;-70
2021/05/22 12:22:16;;;;;;;2.05;1.30;;;;;;;;;;5033637;28;20034;-70
2021/05/22 12:24:43;;;;;;;3.40;1.33;;;;;;;;;;5033699;28;20021;-70
2021/05/22 12:27:13;;;;;;;3.35;1.40;;;;;;;;;;5033497;28;20029;-70
2021/05/22 12:29:39;;;;;;;4.43;1.60;;;;;;;;;;5033526;28;20036;-70
2021/05/22 12:32:06;;;;;;;2.22;1.20;;;;;;;;;;5033454;28;20435;-70
2021/05/22 12:34:33;;;;;;;6.47;1.52;;;;;;;;;;5033412;28;20044;-70
2021/05/22 12:37:05;;;;;;;4.85;1.50;;;;;;;;;;5033390;28;20029;-69
2021/05/22 12:39:52;;;;;;;4.20;1.48;;;;;;;;;;5033171;28;20385;-69
2021/05/22 12:42:25;;;;;;;5.68;1.60;;;;;;;;;;5033151;28;20026;-70
2021/05/22 12:44:52;;;;;;;4.20;1.40;;;;;;;;;;5033109;28;20382;-69
2021/05/22 12:47:22;;;;;;;2.47;1.40;;;;;;;;;;5033213;28;20080;-70
2021/05/22 12:49:59;;;;;;;4.13;1.38;;;;;;;;;;5033149;28;20026;-70
2021/05/22 12:52:28;;;;;;;1.90;1.30;;;;;;;;;;5033164;28;20037;-71
2021/05/22 12:54:54;;;;;;;5.60;1.38;;;;;;;;;;5033013;28;20372;-71
2021/05/22 12:57:21;;;;;;;5.90;1.80;;;;;;;;;;5032417;28;20500;-71
2021/05/22 12:59:53;;;;;;;2.83;1.42;;;;;;;;;;5032889;28;20059;-70
2021/05/22 13:02:22;;;;;;;6.82;1.45;;;;;;;;;;5033043;28;20513;-70
2021/05/22 13:05:12;;;;;;;10.70;1.75;;;;;;;;;;5032804;28;20469;-70
2021/05/22 13:07:41;;;;;;;2.58;1.27;;;;;;;;;;5004578;28;20057;-71
2021/05/22 13:10:08;;;;;;;2.97;1.40;;;;;;;;;;5032936;28;20033;-71
2021/05/22 13:12:34;;;;;;;7.80;2.25;;;;;;;;;;5032881;28;20029;-69
2021/05/22 13:15:16;;;;;;;11.45;1.90;;;;;;;;;;5032837;28;20418;-71
2021/05/22 13:17:50;;;;;;;2.60;1.33;;;;;;;;;;5032710;28;20033;-72
2021/05/22 13:20:23;;;;;;;2.95;1.02;;;;;;;;;;5032640;28;20034;-72
2021/05/22 13:22:50;;;;;;;3.40;1.38;;;;;;;;;;5032533;28;20061;-71
2021/05/22 13:25:18;;;;;;;3.50;1.88;;;;;;;;;;5032667;28;20025;-70
2021/05/22 13:28:00;;;;;;;4.57;1.50;;;;;;;;;;5032673;28;20418;-71
2021/05/22 13:30:30;;;;;;;7.82;2.10;;;;;;;;;;5032656;28;20030;-69
2021/05/22 13:32:56;;;;;;;7.35;1.80;;;;;;;;;;5034485;28;20029;-74
2021/05/22 13:35:25;;;;;;;3.97;1.40;;;;;;;;;;5052624;28;20381;-69
2021/05/22 13:37:51;;;;;;;3.05;1.30;;;;;;;;;;5052268;28;20022;-70
2021/05/22 13:40:17;;;;;;;4.40;1.30;;;;;;;;;;5052282;28;20037;-70
2021/05/22 13:42:43;;;;;;;2.28;1.20;;;;;;;;;;5048610;28;20021;-71
2021/05/22 13:45:09;;;;;;;2.13;1.00;;;;;;;;;;5052468;28;20025;-71
2021/05/22 13:47:37;;;;;;;4.10;1.15;;;;;;;;;;5052047;28;20108;-72
2021/05/22 13:50:04;;;;;;;5.90;1.10;;;;;;;;;;5052226;28;20380;-72
2021/05/22 13:52:30;;;;;;;1.80;0.90;;;;;;;;;;5052340;28;20036;-72
2021/05/22 13:54:56;;;;;;;1.58;1.02;;;;;;;;;;5052463;28;20380;-71
2021/05/22 13:57:22;;;;;;;5.45;1.20;;;;;;;;;;5052010;28;20055;-72
2021/05/22 13:59:48;;;;;;;6.80;1.40;;;;;;;;;;5052319;28;20033;-71
2021/05/22 14:02:14;;;;;;;2.88;0.90;;;;;;;;;;5052157;28;20538;-70
2021/05/22 14:04:40;;;;;;;2.92;1.27;;;;;;;;;;5052085;28;20037;-71
2021/05/22 14:07:06;;;;;;;2.05;0.90;;;;;;;;;;5051864;28;20049;-71
2021/05/22 14:09:32;;;;;;;3.75;1.38;;;;;;;;;;5055196;28;20061;-71
2021/05/22 14:11:58;;;;;;;3.38;1.05;;;;;;;;;;5056034;28;20037;-71
2021/05/22 14:14:24;;;;;;;1.85;0.85;;;;;;;;;;5043160;28;20485;-72
2021/05/22 14:16:50;;;;;;;1.13;0.90;;;;;;;;;;5028868;28;20033;-71
2021/05/22 14:19:16;;;;;;;3.10;1.10;;;;;;;;;;5030233;28;20461;-73
2021/05/22 14:21:42;;;;;;;2.50;0.80;;;;;;;;;;5029985;28;20546;-72
2021/05/22 14:24:08;;;;;;;2.85;1.15;;;;;;;;;;5027837;28;20026;-77
2021/05/22 14:26:35;;;;;;;2.33;0.88;;;;;;;;;;5028698;28;20381;-70
2021/05/22 14:29:01;;;;;;;4.82;1.30;;;;;;;;;;5029951;28;20037;-73
2021/05/22 14:31:27;;;;;;;3.28;1.15;;;;;;;;;;5027522;28;20025;-72
2021/05/22 14:33:53;;;;;;;2.90;1.42;;;;;;;;;;5028546;28;20036;-72
2021/05/22 14:36:19;;;;;;;2.30;0.90;;;;;;;;;;5029245;28;20196;-71
2021/05/22 14:38:45;;;;;;;2.15;0.95;;;;;;;;;;5027591;28;20498;-71
2021/05/22 14:41:11;;;;;;;3.47;1.08;;;;;;;;;;5031937;28;20036;-72
2021/05/22 14:43:37;;;;;;;0.90;0.73;;;;;;;;;;5027933;28;20022;-70
2021/05/22 14:46:03;;;;;;;1.98;0.90;;;;;;;;;;5031802;28;20080;-72
2021/05/22 14:48:29;;;;;;;2.97;1.00;;;;;;;;;;5029946;28;20024;-72
2021/05/22 14:50:56;;;;;;;2.88;0.90;;;;;;;;;;5033234;28;20111;-70
2021/05/22 14:53:21;;;;;;;5.00;1.27;;;;;;;;;;5028332;28;20523;-69
2021/05/22 14:55:47;;;;;;;2.13;1.00;;;;;;;;;;5027924;28;20061;-71
2021/05/22 14:58:13;;;;;;;2.45;0.80;;;;;;;;;;5029708;28;20491;-70
2021/05/22 15:00:39;;;;;;;3.13;0.77;;;;;;;;;;5029601;28;20388;-70
2021/05/22 15:03:06;;;;;;;3.40;1.10;;;;;;;;;;5035103;28;20025;-69
2021/05/22 15:05:32;;;;;;;1.58;0.98;;;;;;;;;;5035089;28;20036;-69
2021/05/22 15:07:58;;;;;;;1.65;1.20;;;;;;;;;;5033498;28;20041;-71
2021/05/22 15:10:24;;;;;;;2.38;0.82;;;;;;;;;;5028477;28;20496;-68
2021/05/22 15:12:50;;;;;;;3.17;1.15;;;;;;;;;;5027839;28;20021;-69
2021/05/22 15:15:17;;;;;;;3.05;0.93;;;;;;;;;;5023412;28;20442;-69
2021/05/22 15:17:43;;;;;;;3.38;1.40;;;;;;;;;;5028690;28;20080;-69
2021/05/22 15:20:10;;;;;;;1.55;0.90;;;;;;;;;;5028194;28;20447;-67
2021/05/22 15:22:36;;;;;;;2.55;0.90;;;;;;;;;;5034639;28;20026;-68
2021/05/22 15:25:04;;;;;;;3.03;1.00;;;;;;;;;;5034600;28;20025;-68
2021/05/22 15:27:30;;;;;;;2.72;1.30;;;;;;;;;;5034612;28;20026;-68
2021/05/22 15:29:56;;;;;;;3.05;1.10;;;;;;;;;;5034280;28;20060;-68
2021/05/22 15:32:22;;;;;;;2.88;1.00;;;;;;;;;;5034441;28;20026;-68
2021/05/22 15:34:48;;;;;;;3.58;1.30;;;;;;;;;;5034467;28;20025;-68
2021/05/22 15:37:14;;;;;;;3.17;1.00;;;;;;;;;;5034352;28;20037;-68
2021/05/22 15:39:44;;;;;;;3.63;1.60;;;;;;;;;;5034094;28;20044;-68
2021/05/22 15:42:11;;;;;;;2.03;1.00;;;;;;;;;;5034331;28;20014;-67
2021/05/22 15:44:37;;;;;;;2.25;1.08;;;;;;;;;;5016603;28;20370;-68
2021/05/22 15:47:03;;;;;;;4.75;0.98;;;;;;;;;;5034341;28;20036;-67
2021/05/22 16:00:14;;;;;;;8.45;3.60;;;;;;;;;;5019442;28;20402;-67
2021/05/22 16:07:44;;;;;;;8.45;4.93;;;;;;;;;;5027809;28;20151;-68
2021/05/22 16:10:10;;;;;;;4.55;2.50;;;;;;;;;;5027167;28;20068;-67
2021/05/22 16:12:36;;;;;;;2.83;1.63;;;;;;;;;;5024366;28;20500;-67
2021/05/22 16:15:02;;;;;;;2.38;1.10;;;;;;;;;;5029402;28;20025;-67
2021/05/22 16:17:28;;;;;;;1.98;1.23;;;;;;;;;;5029572;28;20032;-67
2021/05/22 16:19:54;;;;;;;2.92;1.05;;;;;;;;;;5028916;28;20116;-67
2021/05/22 16:22:20;;;;;;;6.28;2.05;;;;;;;;;;5009041;28;20076;-67
2021/05/22 16:24:46;;;;;;;3.05;1.60;;;;;;;;;;5028188;28;20029;-67
2021/05/22 16:27:12;;;;;;;3.97;1.60;;;;;;;;;;5033553;28;20033;-69
2021/05/22 16:29:41;;;;;;;5.40;1.50;;;;;;;;;;5033440;28;20461;-69
2021/05/22 16:32:07;;;;;;;3.33;1.60;;;;;;;;;;5033475;28;20033;-69
2021/05/22 16:34:33;;;;;;;33.53;19.02;;;;;;;;;;5033367;28;20036;-69
2021/05/22 16:36:59;;;;;;;47.33;33.25;;;;;;;;;;5015601;28;20120;-69
2021/05/22 16:39:26;;;;;;;4.07;1.90;;;;;;;;;;5033323;28;20040;-69
2021/05/22 16:41:51;;;;;;;6.20;5.30;;;;;;;;;;5033410;28;20040;-69
2021/05/22 16:44:18;;;;;;;2.65;2.15;;;;;;;;;;5033284;28;20033;-70
2021/05/22 16:46:44;;;;;;;4.25;1.65;;;;;;;;;;5032936;28;20156;-70
2021/05/22 16:49:10;;;;;;;4.32;2.05;;;;;;;;;;5033058;28;20484;-70
2021/05/22 16:51:36;;;;;;;2.63;1.85;;;;;;;;;;5033158;28;20457;-70
2021/05/22 16:54:02;;;;;;;2.67;1.60;;;;;;;;;;5033247;28;20021;-67
2021/05/22 16:56:32;;;;;;;2.80;1.63;;;;;;;;;;5032880;28;20033;-69
2021/05/22 16:59:00;;;;;;;11.75;8.57;;;;;;;;;;5033004;28;20033;-70
2021/05/22 17:01:26;;;;;;;11.90;7.30;;;;;;;;;;5033016;28;20404;-69
2021/05/22 17:03:52;;;;;;;28.77;17.00;;;;;;;;;;5030020;28;20113;-69
2021/05/22 17:06:18;;;;;;;17.25;9.00;;;;;;;;;;5025858;28;20025;-70
2021/05/22 17:08:44;;;;;;;7.45;5.10;;;;;;;;;;5024094;28;20046;-70
2021/05/22 17:11:10;;;;;;;7.35;5.03;;;;;;;;;;5026556;28;20014;-70
2021/05/22 17:13:36;;;;;;;43.13;25.95;;;;;;;;;;5026676;28;20022;-71
2021/05/22 17:16:02;;;;;;;162.95;100.07;;;;;;;;;;5021244;28;20065;-70
2021/05/22 17:18:28;;;;;;;11.07;7.10;;;;;;;;;;5026506;28;20104;-68
2021/05/22 17:20:54;;;;;;;14.75;12.57;;;;;;;;;;5024258;28;20029;-69
2021/05/22 17:23:20;;;;;;;4.43;2.35;;;;;;;;;;5025888;28;20431;-68
2021/05/22 17:25:46;;;;;;;3.60;2.20;;;;;;;;;;5025834;28;20029;-69
2021/05/22 17:28:12;;;;;;;3.85;1.90;;;;;;;;;;5025286;28;20013;-68
2021/05/22 17:30:38;;;;;;;8.05;3.08;;;;;;;;;;5023788;28;20088;-70
2021/05/22 17:33:04;;;;;;;4.25;2.50;;;;;;;;;;5026469;28;20432;-72
2021/05/22 17:35:30;;;;;;;8.68;5.47;;;;;;;;;;5026634;28;20021;-69
2021/05/22 17:37:56;;;;;;;8.43;5.55;;;;;;;;;;5026396;28;20048;-69
2021/05/22 17:40:24;;;;;;;8.93;6.70;;;;;;;;;;5023738;28;20466;-71
2021/05/22 17:42:50;;;;;;;7.93;5.38;;;;;;;;;;5012679;28;20049;-70
2021/05/22 17:45:18;;;;;;;5.97;4.90;;;;;;;;;;5029885;28;20026;-70
2021/05/22 17:47:44;;;;;;;10.38;5.90;;;;;;;;;;5029950;28;20013;-69
2021/05/22 17:50:10;;;;;;;10.35;5.82;;;;;;;;;;5028799;28;20378;-71
2021/05/22 17:52:37;;;;;;;9.50;5.97;;;;;;;;;;5033070;28;20032;-72
2021/05/22 17:55:03;;;;;;;10.18;6.65;;;;;;;;;;5025049;28;20112;-70
2021/05/22 17:57:29;;;;;;;14.88;6.00;;;;;;;;;;5011467;28;20108;-71
2021/05/22 17:59:55;;;;;;;12.40;6.07;;;;;;;;;;5024453;28;20538;-70
2021/05/22 18:02:22;;;;;;;9.73;6.10;;;;;;;;;;5030106;28;20029;-70
2021/05/22 18:04:48;;;;;;;13.68;6.90;;;;;;;;;;5028663;28;20021;-69
2021/05/22 18:07:14;;;;;;;11.13;7.50;;;;;;;;;;5028629;28;20046;-68
2021/05/22 18:09:40;;;;;;;26.73;14.90;;;;;;;;;;5026136;28;20471;-67
2021/05/22 18:12:06;;;;;;;27.20;13.90;;;;;;;;;;5028905;28;20087;-68
2021/05/22 18:14:32;;;;;;;15.95;8.15;;;;;;;;;;5027210;28;20025;-66
2021/05/22 18:16:58;;;;;;;15.70;7.20;;;;;;;;;;5026661;28;20033;-66
2021/05/22 18:19:24;;;;;;;19.48;8.32;;;;;;;;;;5025620;28;20065;-67
2021/05/22 18:21:50;;;;;;;18.35;8.82;;;;;;;;;;5026365;28;20449;-66
2021/05/22 18:24:16;;;;;;;15.70;8.43;;;;;;;;;;5026840;28;20113;-68
2021/05/22 18:26:42;;;;;;;11.75;7.75;;;;;;;;;;5027347;28;20026;-66
2021/05/22 18:29:08;;;;;;;9.75;7.07;;;;;;;;;;5026028;28;20382;-66
2021/05/22 18:31:34;;;;;;;12.45;7.10;;;;;;;;;;5028005;28;20031;-66
2021/05/22 18:34:02;;;;;;;10.45;6.68;;;;;;;;;;5032885;28;20037;-66
2021/05/22 18:36:28;;;;;;;11.35;6.55;;;;;;;;;;5026846;28;20084;-68
2021/05/22 18:38:55;;;;;;;10.38;6.22;;;;;;;;;;5026383;28;20053;-66
2021/05/22 18:41:21;;;;;;;11.00;6.30;;;;;;;;;;5032470;28;20061;-67
2021/05/22 18:43:47;;;;;;;9.98;5.93;;;;;;;;;;5031953;28;20067;-67
2021/05/22 18:46:13;;;;;;;14.10;5.80;;;;;;;;;;5032266;28;20382;-67
2021/05/22 18:48:40;;;;;;;10.88;6.90;;;;;;;;;;5027964;28;20061;-67
2021/05/22 18:51:07;;;;;;;10.20;6.55;;;;;;;;;;5032192;28;20026;-66
2021/05/22 18:53:33;;;;;;;10.15;6.15;;;;;;;;;;5032055;28;20436;-66
2021/05/22 18:56:00;;;;;;;9.80;5.70;;;;;;;;;;5031129;28;20557;-66
2021/05/22 18:58:28;;;;;;;12.52;6.10;;;;;;;;;;5027498;28;20470;-66
2021/05/22 19:00:54;;;;;;;8.05;5.47;;;;;;;;;;5028361;28;20025;-66
2021/05/22 19:03:21;;;;;;;9.70;5.75;;;;;;;;;;5025572;28;20115;-72
2021/05/22 19:08:20;;;;;;;6.82;3.97;;;;;;;;;;5027333;28;20045;-66
2021/05/22 19:10:46;;;;;;;5.82;3.75;;;;;;;;;;5032550;28;20448;-66
2021/05/22 19:13:13;;;;;;;5.15;3.45;;;;;;;;;;5014748;28;20025;-67
2021/05/22 19:15:39;;;;;;;4.72;3.13;;;;;;;;;;5015003;28;20423;-67
2021/05/22 19:18:07;;;;;;;4.60;3.13;;;;;;;;;;5032570;28;20457;-65
2021/05/22 19:20:34;;;;;;;4.32;2.92;;;;;;;;;;5032536;28;20069;-66
2021/05/22 19:23:03;;;;;;;5.95;3.08;;;;;;;;;;5015626;28;20029;-66
2021/05/22 19:25:29;;;;;;;6.97;2.92;;;;;;;;;;5015535;28;20033;-66
2021/05/22 19:27:55;;;;;;;3.80;2.70;;;;;;;;;;5033104;28;20041;-66
2021/05/22 19:30:24;;;;;;;4.05;2.50;;;;;;;;;;5014208;28;20453;-67
2021/05/22 19:32:52;;;;;;;7.40;3.40;;;;;;;;;;5008211;28;20037;-72
2021/05/22 19:35:18;;;;;;;4.60;2.65;;;;;;;;;;5023291;28;20096;-72
2021/05/22 19:37:44;;;;;;;6.80;2.97;;;;;;;;;;5024093;28;20087;-71
2021/05/22 19:40:11;;;;;;;8.32;3.30;;;;;;;;;;5035180;28;20465;-71
2021/05/22 19:42:40;;;;;;;4.13;2.67;;;;;;;;;;5032416;28;20552;-72
2021/05/22 19:45:07;;;;;;;4.15;2.50;;;;;;;;;;5032755;28;20362;-71
2021/05/22 19:47:33;;;;;;;4.68;2.60;;;;;;;;;;5014657;28;20032;-72
2021/05/22 19:49:59;;;;;;;4.65;2.55;;;;;;;;;;5033546;28;20033;-70
2021/05/22 19:52:25;;;;;;;4.80;2.40;;;;;;;;;;5034037;28;20064;-71
